Baldwin Harbor, New York
Current Conditions -  °F | °C
As of 9:51 PM on Friday 28 Nov 2014 (Local Time) from KJFK Reporting Station
Few Clouds Few Clouds  
Wind Chill: 19°   Ceiling: Unl
Heat Index: 29°   Visibility: 10mi
Dew Point: 11°   Wind: 13mph
Humidity: 47%   Direction: 330°NNW
Pressure: 30.28"   Gusts: NA
Location:  40.6539°N, 73.609°W
Report Text: KJFK 290251Z 33011KT 10SM FEW250 M02/M12 A3028 RMK AO2 SLP253 T10171117 53006
Loading
Personal Weather Stations






























Interactive Weather Map New forecast layout! Learn more

10-Day Weather Forecast

Advertisements
Track Severe Weather on mobile